createdAt,value
2022-08-07T00:01:43.249Z,1.80
2022-08-07T00:03:48.888Z,1.90
2022-08-07T00:06:15.251Z,1.90
2022-08-07T00:08:44.356Z,2.03
2022-08-07T00:11:11.063Z,1.80
2022-08-07T00:13:40.508Z,1.92
2022-08-07T00:16:11.029Z,2.03
2022-08-07T00:18:43.715Z,2.10
2022-08-07T00:21:56.008Z,2.17
2022-08-07T00:23:56.594Z,2.10
2022-08-07T00:26:59.453Z,2.00
2022-08-07T00:29:09.152Z,1.75
2022-08-07T00:31:37.640Z,1.98
2022-08-07T00:34:08.526Z,1.90
2022-08-07T00:36:35.330Z,2.33
2022-08-07T00:39:04.689Z,2.13
2022-08-07T00:41:32.415Z,2.00
2022-08-07T00:44:03.647Z,2.00
2022-08-07T00:46:30.949Z,2.03
2022-08-07T00:49:02.944Z,1.92
2022-08-07T00:51:57.503Z,1.65
2022-08-07T00:54:16.172Z,1.92
2022-08-07T00:56:45.978Z,2.05
2022-08-07T00:59:16.297Z,1.90
2022-08-07T01:01:44.794Z,1.80
2022-08-07T01:04:11.159Z,1.83
2022-08-07T01:06:50.875Z,2.10
2022-08-07T01:10:04.157Z,1.80
2022-08-07T01:12:10.025Z,2.10
2022-08-07T01:14:50.302Z,2.05
2022-08-07T01:17:23.831Z,1.95
2022-08-07T01:19:54.251Z,2.20
2022-08-07T01:22:22.750Z,2.03
2022-08-07T01:24:55.551Z,2.15
2022-08-07T01:27:22.233Z,1.88
2022-08-07T01:29:48.673Z,1.70
2022-08-07T01:32:16.959Z,2.28
2022-08-07T01:34:47.371Z,2.00
2022-08-07T01:37:17.278Z,2.13
2022-08-07T01:39:46.712Z,2.08
2022-08-07T01:42:39.718Z,2.45
2022-08-07T01:45:00.390Z,2.45
2022-08-07T01:48:20.137Z,2.25
2022-08-07T01:50:13.015Z,2.30
2022-08-07T01:52:49.376Z,2.17
2022-08-07T01:55:29.367Z,2.53
2022-08-07T01:58:06.112Z,2.50
2022-08-07T02:00:50.033Z,2.90
2022-08-07T02:03:26.465Z,2.40
2022-08-07T02:06:02.131Z,2.50
2022-08-07T02:08:29.534Z,2.80
2022-08-07T02:10:59.149Z,2.70
2022-08-07T02:13:58.140Z,2.10
2022-08-07T02:16:14.504Z,2.08
2022-08-07T02:18:47.051Z,2.17
2022-08-07T02:21:16.317Z,2.45
2022-08-07T02:23:43.586Z,2.15
2022-08-07T02:26:34.291Z,2.22
2022-08-07T02:28:58.220Z,2.25
2022-08-07T02:31:29.112Z,2.40
2022-08-07T02:34:03.508Z,2.67
2022-08-07T02:36:32.700Z,2.30
2022-08-07T02:39:00.232Z,2.10
2022-08-07T02:41:33.545Z,2.40
2022-08-07T02:44:04.377Z,2.13
2022-08-07T02:46:31.624Z,2.55
2022-08-07T02:48:58.026Z,2.33
2022-08-07T02:51:41.884Z,2.15
2022-08-07T02:54:13.175Z,2.13
2022-08-07T02:56:41.336Z,2.08
2022-08-07T02:59:10.062Z,2.10
2022-08-07T03:01:39.890Z,2.60
2022-08-07T03:04:12.481Z,2.58
2022-08-07T03:06:39.637Z,2.40
2022-08-07T03:09:07.552Z,2.55
2022-08-07T03:11:39.109Z,2.17
2022-08-07T03:14:20.053Z,2.55
2022-08-07T03:16:48.835Z,2.38
2022-08-07T03:19:15.503Z,2.72
2022-08-07T03:21:45.495Z,2.60
2022-08-07T03:24:18.234Z,2.53
2022-08-07T03:26:58.286Z,2.50
2022-08-07T03:29:25.478Z,2.55
2022-08-07T03:31:53.938Z,2.50
2022-08-07T03:34:22.851Z,2.47
2022-08-07T03:36:54.722Z,2.75
2022-08-07T03:39:46.007Z,2.30
2022-08-07T03:42:09.071Z,2.58
2022-08-07T03:44:36.271Z,2.58
2022-08-07T03:47:13.708Z,2.88
2022-08-07T03:49:41.285Z,2.70
2022-08-07T03:52:08.104Z,2.38
2022-08-07T03:54:55.187Z,2.60
2022-08-07T03:58:35.082Z,2.53
2022-08-07T04:00:12.275Z,2.55
2022-08-07T04:02:41.110Z,2.40
2022-08-07T04:05:07.964Z,2.58
2022-08-07T04:07:41.631Z,2.53
2022-08-07T04:10:15.311Z,2.47
2022-08-07T04:12:45.450Z,2.35
2022-08-07T04:15:13.611Z,2.17
2022-08-07T04:18:31.433Z,2.50
2022-08-07T04:20:29.059Z,2.70
2022-08-07T04:23:01.330Z,2.35
2022-08-07T04:25:29.157Z,2.92
2022-08-07T04:27:59.430Z,2.83
2022-08-07T04:30:39.431Z,2.63
2022-08-07T04:33:13.761Z,2.22
2022-08-07T04:35:40.612Z,2.38
2022-08-07T04:38:08.454Z,2.53
2022-08-07T04:40:35.481Z,2.50
2022-08-07T04:43:03.282Z,2.70
2022-08-07T04:45:57.295Z,2.65
2022-08-07T04:48:27.120Z,2.70
2022-08-07T04:50:56.256Z,2.80
2022-08-07T04:54:05.772Z,2.40
2022-08-07T04:58:12.545Z,2.65
2022-08-07T05:00:12.067Z,2.70
2022-08-07T05:02:39.023Z,3.13
2022-08-07T05:05:53.176Z,2.63
2022-08-07T05:08:07.706Z,2.60
2022-08-07T05:10:40.428Z,2.53
2022-08-07T05:14:55.448Z,2.80
2022-08-07T05:16:15.493Z,3.00
2022-08-07T05:18:55.914Z,3.10
2022-08-07T05:22:00.636Z,2.83
2022-08-07T05:24:12.932Z,2.85
2022-08-07T05:26:39.556Z,2.90
2022-08-07T05:29:07.408Z,2.97
2022-08-07T05:31:38.426Z,2.97
2022-08-07T05:34:11.410Z,3.08
2022-08-07T05:36:40.196Z,2.70
2022-08-07T05:40:06.570Z,3.13
2022-08-07T05:42:01.634Z,2.88
2022-08-07T05:44:30.278Z,2.70
2022-08-07T05:46:57.076Z,2.97
2022-08-07T05:49:24.012Z,2.83
2022-08-07T05:51:50.259Z,2.83
2022-08-07T05:54:31.055Z,2.83
2022-08-07T05:57:03.355Z,3.03
2022-08-07T05:59:39.032Z,2.60
2022-08-07T06:02:28.840Z,2.28
2022-08-07T06:04:57.438Z,2.53
2022-08-07T06:08:13.717Z,2.10
2022-08-07T06:10:15.365Z,2.35
2022-08-07T06:12:41.993Z,2.67
2022-08-07T06:15:09.519Z,2.50
2022-08-07T06:17:42.823Z,2.50
2022-08-07T06:20:32.024Z,2.60
2022-08-07T06:23:24.806Z,2.67
2022-08-07T06:25:57.078Z,2.67
2022-08-07T06:28:28.142Z,2.50
2022-08-07T06:30:55.239Z,2.90
2022-08-07T06:33:22.671Z,2.40
2022-08-07T06:36:06.625Z,2.58
2022-08-07T06:38:35.457Z,2.42
2022-08-07T06:41:02.404Z,2.53
2022-08-07T06:43:39.286Z,2.10
2022-08-07T06:46:06.138Z,2.10
2022-08-07T06:48:37.951Z,2.45
2022-08-07T06:51:09.876Z,2.27
2022-08-07T06:55:28.410Z,1.88
2022-08-07T06:56:48.680Z,2.45
2022-08-07T07:00:14.211Z,2.28
2022-08-07T07:02:12.555Z,2.22
2022-08-07T07:04:59.140Z,2.22
2022-08-07T07:07:59.646Z,2.28
2022-08-07T07:10:14.159Z,2.28
2022-08-07T07:12:53.375Z,2.28
2022-08-07T07:15:23.888Z,1.90
2022-08-07T07:18:09.253Z,2.28
2022-08-07T07:20:43.125Z,1.90
2022-08-07T07:24:08.870Z,2.03
2022-08-07T07:26:33.002Z,1.90
2022-08-07T07:29:28.593Z,2.00
2022-08-07T07:31:44.428Z,2.00
2022-08-07T07:34:18.126Z,1.90
2022-08-07T07:36:47.856Z,1.70
2022-08-07T07:39:19.751Z,2.05
2022-08-07T07:42:12.884Z,1.73
2022-08-07T07:44:39.685Z,1.50
2022-08-07T07:47:14.163Z,1.80
2022-08-07T07:50:35.100Z,1.70
2022-08-07T07:52:32.293Z,1.50
2022-08-07T07:54:58.970Z,1.33
2022-08-07T07:57:43.926Z,1.60
2022-08-07T08:00:15.040Z,1.73
2022-08-07T08:03:05.091Z,1.30
2022-08-07T08:05:50.820Z,1.50
2022-08-07T08:08:35.339Z,1.38
2022-08-07T08:11:08.418Z,1.10
2022-08-07T08:13:36.756Z,1.25
2022-08-07T08:16:25.211Z,1.00
2022-08-07T08:18:54.104Z,1.20
2022-08-07T08:22:00.601Z,0.98
2022-08-07T08:24:47.405Z,0.95
2022-08-07T08:27:22.448Z,1.02
2022-08-07T08:29:54.505Z,1.00
2022-08-07T08:32:25.519Z,0.90
2022-08-07T08:35:06.822Z,0.93
2022-08-07T08:38:00.738Z,1.00
2022-08-07T08:40:33.805Z,1.02
2022-08-07T08:43:07.615Z,0.90
2022-08-07T08:45:58.398Z,0.88
2022-08-07T08:48:45.742Z,1.02
2022-08-07T08:52:13.304Z,1.10
2022-08-07T08:54:44.642Z,0.77
2022-08-07T08:57:23.132Z,0.80
2022-08-07T08:59:50.291Z,1.02
2022-08-07T09:02:35.194Z,0.90
2022-08-07T09:05:03.709Z,0.88
2022-08-07T09:07:46.195Z,0.85
2022-08-07T09:10:44.267Z,1.10
2022-08-07T09:13:19.942Z,1.00
2022-08-07T09:16:42.800Z,1.10
2022-08-07T09:19:50.950Z,1.10
2022-08-07T09:24:29.250Z,0.80
2022-08-07T09:25:14.606Z,0.82
2022-08-07T09:28:00.038Z,0.98
2022-08-07T09:30:29.581Z,0.60
2022-08-07T09:32:58.642Z,0.73
2022-08-07T09:36:03.506Z,0.68
2022-08-07T09:38:39.324Z,0.65
2022-08-07T09:41:07.159Z,0.70
2022-08-07T09:44:03.092Z,0.70
2022-08-07T09:47:51.622Z,0.80
2022-08-07T09:50:02.070Z,0.68
2022-08-07T09:52:16.385Z,0.80
2022-08-07T09:54:58.591Z,0.70
2022-08-07T09:57:25.033Z,0.55
2022-08-07T10:00:14.842Z,0.60
2022-08-07T10:03:07.918Z,0.60
2022-08-07T10:06:01.236Z,0.52
2022-08-07T10:08:49.567Z,0.95
2022-08-07T10:12:03.094Z,0.40
2022-08-07T10:14:35.167Z,0.47
2022-08-07T10:17:17.073Z,0.50
2022-08-07T10:19:47.734Z,0.60
2022-08-07T10:22:33.632Z,0.50
2022-08-07T10:25:00.341Z,0.88
2022-08-07T10:27:46.214Z,0.60
2022-08-07T10:30:16.204Z,0.50
2022-08-07T10:33:01.269Z,0.80
2022-08-07T10:35:55.288Z,0.68
2022-08-07T10:38:48.034Z,0.60
2022-08-07T10:41:52.192Z,0.60
2022-08-07T10:44:19.233Z,0.63
2022-08-07T10:46:57.610Z,0.70
2022-08-07T10:49:49.289Z,0.45
2022-08-07T10:52:37.768Z,0.73
2022-08-07T10:55:32.501Z,0.60
2022-08-07T10:58:10.241Z,0.60
2022-08-07T11:00:50.521Z,0.50
2022-08-07T11:03:37.366Z,0.60
2022-08-07T11:06:22.892Z,0.50
2022-08-07T11:08:58.930Z,0.80
2022-08-07T11:11:45.722Z,0.70
2022-08-07T11:14:45.196Z,0.70
2022-08-07T11:17:23.639Z,0.60
2022-08-07T11:20:24.598Z,0.68
2022-08-07T11:23:09.539Z,0.63
2022-08-07T11:25:48.290Z,0.50
2022-08-07T11:28:17.557Z,0.50
2022-08-07T11:30:59.071Z,0.65
2022-08-07T11:33:54.047Z,1.92
2022-08-07T11:36:30.883Z,1.20
2022-08-07T11:42:01.813Z,0.90
2022-08-07T11:44:32.439Z,0.88
2022-08-07T11:47:00.661Z,0.80
2022-08-07T11:50:25.469Z,0.70
2022-08-07T11:52:42.347Z,0.80
2022-08-07T11:55:19.036Z,0.70
2022-08-07T11:57:59.686Z,0.95
2022-08-07T12:00:38.456Z,0.50
2022-08-07T12:03:45.739Z,0.60
2022-08-07T12:06:36.897Z,0.80
2022-08-07T12:09:05.036Z,0.75
2022-08-07T12:12:09.179Z,1.08
2022-08-07T12:15:03.099Z,1.60
2022-08-07T12:17:34.208Z,1.30
2022-08-07T12:20:12.922Z,0.80
2022-08-07T12:23:09.237Z,1.77
2022-08-07T12:26:21.636Z,1.30
2022-08-07T12:29:01.408Z,1.05
2022-08-07T12:31:53.176Z,0.80
2022-08-07T12:34:20.104Z,0.70
2022-08-07T12:36:49.625Z,0.70
2022-08-07T12:39:42.631Z,0.63
2022-08-07T12:42:06.962Z,0.60
2022-08-07T12:44:34.968Z,0.55
2022-08-07T12:47:14.030Z,0.60
2022-08-07T12:49:51.433Z,0.63
2022-08-07T12:52:26.979Z,0.50
2022-08-07T12:55:01.532Z,0.70
2022-08-07T12:57:59.192Z,0.77
2022-08-07T13:00:20.938Z,0.50
2022-08-07T13:03:11.892Z,0.57
2022-08-07T13:06:17.273Z,0.60
2022-08-07T13:08:52.735Z,0.60
2022-08-07T13:11:28.519Z,0.60
2022-08-07T13:14:09.957Z,0.70
2022-08-07T13:16:44.314Z,0.70
2022-08-07T13:19:46.175Z,0.63
2022-08-07T13:22:19.977Z,0.70
2022-08-07T13:25:02.534Z,0.65
2022-08-07T13:28:11.525Z,0.60
2022-08-07T13:30:40.181Z,0.60
2022-08-07T13:34:13.300Z,0.50
2022-08-07T13:36:19.090Z,0.50
2022-08-07T13:38:55.658Z,0.40
2022-08-07T13:41:31.062Z,0.63
2022-08-07T13:44:00.395Z,0.80
2022-08-07T13:46:32.770Z,0.70
2022-08-07T13:49:00.449Z,0.55
2022-08-07T13:52:22.170Z,1.08
2022-08-07T13:54:16.572Z,1.33
2022-08-07T13:56:56.012Z,1.20
2022-08-07T13:59:27.156Z,0.90
2022-08-07T14:02:04.398Z,0.70
2022-08-07T14:04:36.085Z,1.55
2022-08-07T14:07:09.597Z,1.20
2022-08-07T14:10:02.605Z,0.70
2022-08-07T14:12:30.886Z,0.70
2022-08-07T14:15:04.470Z,0.70
2022-08-07T14:18:27.115Z,0.55
2022-08-07T14:20:39.740Z,0.73
2022-08-07T14:23:59.533Z,0.50
2022-08-07T14:26:08.532Z,0.50
2022-08-07T14:28:55.984Z,0.60
2022-08-07T14:31:26.020Z,0.70
2022-08-07T14:34:11.429Z,0.68
2022-08-07T14:36:47.303Z,0.52
2022-08-07T14:40:16.417Z,0.50
2022-08-07T14:42:18.582Z,0.57
2022-08-07T14:44:49.527Z,0.77
2022-08-07T14:47:18.779Z,0.50
2022-08-07T14:49:56.975Z,0.70
2022-08-07T14:52:34.068Z,0.57
2022-08-07T14:55:01.446Z,0.68
2022-08-07T14:57:55.314Z,0.80
2022-08-07T15:00:29.689Z,0.50
2022-08-07T15:02:57.955Z,0.50
2022-08-07T15:05:24.458Z,1.00
2022-08-07T15:07:52.725Z,0.70
2022-08-07T15:10:26.459Z,0.60
2022-08-07T15:12:58.275Z,0.70
2022-08-07T15:15:29.464Z,0.60
2022-08-07T15:18:02.484Z,0.90
2022-08-07T15:20:54.578Z,0.63
2022-08-07T15:23:53.596Z,0.60
2022-08-07T15:26:20.924Z,0.75
2022-08-07T15:28:55.558Z,0.65
2022-08-07T15:32:00.765Z,0.60
2022-08-07T15:34:15.024Z,0.60
2022-08-07T15:37:04.294Z,0.90
2022-08-07T15:39:57.583Z,0.98
2022-08-07T15:45:23.154Z,0.73
2022-08-07T15:48:01.036Z,0.60
2022-08-07T15:50:37.403Z,0.80
2022-08-07T15:53:18.862Z,0.80
2022-08-07T15:55:53.883Z,0.55
2022-08-07T15:58:34.400Z,0.60
2022-08-07T16:01:02.247Z,0.60
2022-08-07T16:03:46.625Z,0.70
2022-08-07T16:06:14.755Z,0.90
2022-08-07T16:08:41.894Z,0.52
2022-08-07T16:11:26.944Z,0.70
2022-08-07T16:14:02.776Z,0.60
2022-08-07T16:16:43.780Z,0.40
2022-08-07T16:19:42.149Z,0.60
2022-08-07T16:22:21.825Z,0.60
2022-08-07T16:25:06.278Z,0.63
2022-08-07T16:27:49.212Z,0.70
2022-08-07T16:30:30.198Z,0.60
2022-08-07T16:34:02.282Z,0.80
2022-08-07T16:36:04.044Z,0.70
2022-08-07T16:39:01.004Z,0.70
2022-08-07T16:41:41.796Z,0.70
2022-08-07T16:44:53.830Z,0.50
2022-08-07T16:47:56.811Z,1.80
2022-08-07T16:50:35.371Z,1.80
2022-08-07T16:54:01.674Z,0.95
2022-08-07T16:55:59.805Z,4.20
2022-08-07T16:58:54.348Z,1.33
2022-08-07T17:01:34.601Z,1.88
2022-08-07T17:04:03.921Z,1.27
2022-08-07T17:06:45.879Z,1.20
2022-08-07T17:10:06.648Z,0.95
2022-08-07T17:12:34.167Z,5.00
2022-08-07T17:15:16.287Z,1.88
2022-08-07T17:17:46.720Z,1.45
2022-08-07T17:20:31.286Z,1.13
2022-08-07T17:22:58.998Z,1.13
2022-08-07T17:25:47.586Z,1.10
2022-08-07T17:28:20.016Z,0.93
2022-08-07T17:31:00.557Z,1.02
2022-08-07T17:34:18.147Z,0.73
2022-08-07T17:36:34.172Z,0.90
2022-08-07T17:39:24.590Z,0.80
2022-08-07T17:42:15.066Z,0.70
2022-08-07T17:44:50.054Z,3.15
2022-08-07T17:47:38.422Z,2.00
2022-08-07T17:50:19.037Z,1.65
2022-08-07T17:52:45.982Z,1.13
2022-08-07T17:55:16.654Z,0.77
2022-08-07T17:58:08.003Z,1.55
2022-08-07T18:00:49.219Z,3.78
2022-08-07T18:04:03.838Z,2.25
2022-08-07T18:06:38.305Z,1.30
2022-08-07T18:09:06.303Z,4.03
2022-08-07T18:12:17.425Z,2.20
2022-08-07T18:14:50.831Z,2.75
2022-08-07T18:18:45.695Z,1.45
2022-08-07T18:21:09.922Z,1.00
2022-08-07T18:23:43.611Z,1.75
2022-08-07T18:26:18.844Z,1.67
2022-08-07T18:28:57.708Z,1.30
2022-08-07T18:31:38.790Z,1.60
2022-08-07T18:34:40.952Z,2.20
2022-08-07T18:38:58.643Z,1.25
2022-08-07T18:40:43.939Z,1.10
2022-08-07T18:43:10.687Z,0.90
2022-08-07T18:46:24.807Z,3.75
2022-08-07T18:50:29.889Z,1.80
2022-08-07T18:52:37.962Z,2.20
2022-08-07T18:54:41.889Z,1.40
2022-08-07T18:57:29.446Z,1.15
2022-08-07T19:02:36.915Z,0.95
2022-08-07T19:07:52.906Z,1.05
2022-08-07T19:10:31.431Z,0.90
2022-08-07T19:13:10.385Z,1.02
2022-08-07T19:16:05.658Z,0.85
2022-08-07T19:18:35.040Z,1.23
2022-08-07T19:21:14.998Z,1.48
2022-08-07T19:24:00.324Z,1.40
2022-08-07T19:27:01.958Z,1.48
2022-08-07T19:30:55.949Z,1.58
2022-08-07T19:32:18.623Z,1.58
2022-08-07T19:34:55.029Z,1.60
2022-08-07T19:37:22.336Z,1.60
2022-08-07T19:40:01.941Z,1.70
2022-08-07T19:42:30.739Z,1.80
2022-08-07T19:45:00.651Z,1.73
2022-08-07T19:47:36.620Z,1.45
2022-08-07T19:50:45.311Z,1.70
2022-08-07T19:52:59.124Z,1.40
2022-08-07T19:55:57.006Z,1.45
2022-08-07T19:58:15.629Z,1.40
2022-08-07T20:00:54.323Z,1.50
2022-08-07T20:03:34.869Z,1.40
2022-08-07T20:06:06.066Z,1.50
2022-08-07T20:08:34.335Z,1.40
2022-08-07T20:11:03.941Z,1.50
2022-08-07T20:13:41.850Z,1.30
2022-08-07T20:16:15.966Z,1.52
2022-08-07T20:19:01.498Z,1.70
2022-08-07T20:21:42.103Z,3.10
2022-08-07T20:24:28.815Z,1.77
2022-08-07T20:26:58.076Z,1.63
2022-08-07T20:29:48.003Z,1.58
2022-08-07T20:32:23.091Z,1.50
2022-08-07T20:34:53.783Z,1.50
2022-08-07T20:37:24.135Z,1.30
2022-08-07T20:40:03.295Z,1.53
2022-08-07T20:42:31.480Z,1.50
2022-08-07T20:45:00.897Z,1.38
2022-08-07T20:47:56.447Z,1.50
2022-08-07T20:50:15.545Z,1.58
2022-08-07T20:52:51.879Z,1.42
2022-08-07T20:55:20.491Z,1.60
2022-08-07T20:58:02.445Z,1.40
2022-08-07T21:00:44.025Z,1.45
2022-08-07T21:03:13.141Z,1.45
2022-08-07T21:05:54.536Z,1.70
2022-08-07T21:08:36.522Z,1.40
2022-08-07T21:11:07.412Z,1.40
2022-08-07T21:13:57.858Z,1.55
2022-08-07T21:16:23.984Z,1.60
2022-08-07T21:18:53.234Z,1.50
2022-08-07T21:21:21.338Z,1.38
2022-08-07T21:24:00.553Z,1.40
2022-08-07T21:26:46.083Z,1.60
2022-08-07T21:29:18.424Z,1.63
2022-08-07T21:32:41.786Z,1.88
2022-08-07T21:34:45.854Z,1.60
2022-08-07T21:37:14.701Z,1.50
2022-08-07T21:39:46.669Z,2.03
2022-08-07T21:42:48.010Z,1.90
2022-08-07T21:46:04.885Z,2.22
2022-08-07T21:48:28.071Z,2.13
2022-08-07T21:50:58.866Z,1.70
2022-08-07T21:53:37.187Z,1.60
2022-08-07T21:56:16.901Z,1.67
2022-08-07T21:59:20.191Z,1.63
2022-08-07T22:02:11.265Z,1.98
2022-08-07T22:04:38.936Z,1.50
2022-08-07T22:07:31.581Z,1.30
2022-08-07T22:10:03.569Z,1.55
2022-08-07T22:12:32.564Z,1.52
2022-08-07T22:16:39.685Z,1.40
2022-08-07T22:17:57.769Z,1.50
2022-08-07T22:20:37.099Z,1.77
2022-08-07T22:23:10.933Z,1.40
2022-08-07T22:25:42.242Z,1.80
2022-08-07T22:28:31.513Z,1.52
2022-08-07T22:31:45.419Z,1.55
2022-08-07T22:34:35.998Z,1.77
2022-08-07T22:37:21.982Z,1.70
2022-08-07T22:40:08.278Z,1.80
2022-08-07T22:42:35.106Z,1.65
2022-08-07T22:45:03.755Z,1.50
2022-08-07T22:47:36.284Z,1.60
2022-08-07T22:50:29.145Z,1.80
2022-08-07T22:53:08.021Z,1.70
2022-08-07T22:55:50.799Z,1.58
2022-08-07T22:58:28.024Z,1.70
2022-08-07T23:01:10.833Z,1.85
2022-08-07T23:03:58.061Z,1.60
2022-08-07T23:06:51.521Z,1.55
2022-08-07T23:12:09.563Z,1.60
2022-08-07T23:14:54.709Z,1.70
2022-08-07T23:17:30.158Z,1.80
2022-08-07T23:20:51.755Z,1.67
2022-08-07T23:24:05.318Z,1.60
2022-08-07T23:26:23.348Z,1.67
2022-08-07T23:29:03.968Z,1.90
2022-08-07T23:34:18.889Z,1.60
2022-08-07T23:34:43.211Z,2.08
2022-08-07T23:37:29.349Z,1.92
2022-08-07T23:40:05.754Z,2.17
2022-08-07T23:42:53.317Z,1.98
2022-08-07T23:45:33.006Z,2.08
2022-08-07T23:48:22.046Z,1.70
2022-08-07T23:50:56.743Z,1.98
2022-08-07T23:56:28.330Z,1.80
